Time,TemperatureF,DewpointF,PressureIn,WindDirection,WindDirectionDegrees,WindSpeedMPH,WindSpeedGustMPH,Humidity,HourlyPrecipIn,Conditions,Clouds,dailyrainin,SoftwareType,DateUTC
2013-02-02 00:00:00,25.3,10.1,30.07,WNW,284,18.0,25.0,52,0.00,,---,0.00,VWS V14.01,2013-02-02 05:00:00,
2013-02-02 00:01:00,25.2,10.5,30.07,WNW,284,19.0,20.0,53,0.00,,---,0.00,VWS V14.01,2013-02-02 05:01:00,
2013-02-02 00:06:00,25.1,10.0,30.07,WNW,282,19.0,25.0,52,0.00,,---,0.00,VWS V14.01,2013-02-02 05:06:00,
2013-02-02 00:11:00,25.4,11.9,30.07,WNW,289,19.0,25.0,56,0.00,,---,0.00,VWS V14.01,2013-02-02 05:11:00,
2013-02-02 00:16:00,25.2,10.5,30.07,WNW,287,23.0,25.0,53,0.00,,---,0.00,VWS V14.01,2013-02-02 05:16:00,
2013-02-02 00:21:00,25.2,10.1,30.08,WNW,282,25.0,25.0,52,0.00,,---,0.00,VWS V14.01,2013-02-02 05:21:00,
2013-02-02 00:26:00,25.3,11.4,30.07,WNW,292,19.0,25.0,55,0.00,,---,0.00,VWS V14.01,2013-02-02 05:26:00,
2013-02-02 00:31:00,25.1,11.2,30.08,WNW,290,19.0,21.0,55,0.00,,---,0.00,VWS V14.01,2013-02-02 05:31:00,
2013-02-02 00:36:00,25.2,11.3,30.08,West,281,19.0,21.0,55,0.00,,---,0.00,VWS V14.01,2013-02-02 05:36:00,
2013-02-02 00:41:00,24.9,10.6,30.08,West,276,21.0,25.0,54,0.00,,---,0.00,VWS V14.01,2013-02-02 05:41:00,
2013-02-02 00:47:00,25.0,10.7,30.08,West,277,22.0,26.0,54,0.00,,---,0.00,VWS V14.01,2013-02-02 05:47:00,
2013-02-02 00:52:00,24.8,11.3,30.08,West,279,23.0,26.0,56,0.00,,---,0.00,VWS V14.01,2013-02-02 05:52:00,
2013-02-02 00:57:00,24.8,10.1,30.09,West,277,17.0,26.0,53,0.00,,---,0.00,VWS V14.01,2013-02-02 05:57:00,
2013-02-02 01:02:00,24.6,10.3,30.09,WNW,294,17.0,21.0,54,0.00,,---,0.00,VWS V14.01,2013-02-02 06:02:00,
2013-02-02 01:07:00,24.8,12.1,30.09,West,275,23.0,23.0,58,0.00,,---,0.00,VWS V14.01,2013-02-02 06:07:00,
2013-02-02 01:12:00,24.5,11.1,30.09,WNW,284,20.0,25.0,56,0.00,,---,0.00,VWS V14.01,2013-02-02 06:12:00,
2013-02-02 01:17:00,24.2,10.0,30.10,West,279,17.0,25.0,54,0.00,,---,0.00,VWS V14.01,2013-02-02 06:17:00,
2013-02-02 01:22:00,24.4,11.0,30.10,WNW,290,19.0,25.0,56,0.00,,---,0.00,VWS V14.01,2013-02-02 06:22:00,
2013-02-02 01:27:00,24.5,11.9,30.11,West,281,18.0,25.0,58,0.00,,---,0.00,VWS V14.01,2013-02-02 06:27:00,
2013-02-02 01:33:00,24.5,11.5,30.11,West,281,18.0,20.0,57,0.00,,---,0.00,VWS V14.01,2013-02-02 06:33:00,
2013-02-02 01:38:00,24.4,12.5,30.11,West,274,21.0,22.0,60,0.00,,---,0.00,VWS V14.01,2013-02-02 06:38:00,
2013-02-02 01:43:00,24.1,9.5,30.11,WNW,290,23.0,25.0,53,0.00,,---,0.00,VWS V14.01,2013-02-02 06:43:00,
2013-02-02 01:48:00,24.2,11.2,30.12,West,280,18.0,25.0,57,0.00,,---,0.00,VWS V14.01,2013-02-02 06:48:00,
2013-02-02 01:53:00,24.0,10.2,30.12,NW,304,14.0,25.0,55,0.00,,---,0.00,VWS V14.01,2013-02-02 06:53:00,
2013-02-02 01:58:00,24.4,12.1,30.12,WNW,282,19.0,25.0,59,0.00,,---,0.00,VWS V14.01,2013-02-02 06:58:00,
2013-02-02 02:03:00,24.3,11.3,30.12,WNW,290,23.0,23.0,57,0.00,,---,0.00,VWS V14.01,2013-02-02 07:03:00,
2013-02-02 02:08:00,24.4,12.1,30.12,West,279,21.0,23.0,59,0.00,,---,0.00,VWS V14.01,2013-02-02 07:08:00,
2013-02-02 02:13:00,24.4,12.9,30.12,West,277,19.0,23.0,61,0.00,,---,0.00,VWS V14.01,2013-02-02 07:13:00,
2013-02-02 02:18:00,24.1,11.5,30.13,WNW,300,16.0,23.0,58,0.00,,---,0.00,VWS V14.01,2013-02-02 07:18:00,
2013-02-02 02:23:00,24.1,11.9,30.13,WNW,290,17.0,23.0,59,0.00,,---,0.00,VWS V14.01,2013-02-02 07:23:00,
2013-02-02 02:28:00,23.8,11.2,30.13,WNW,288,16.0,23.0,58,0.00,,---,0.00,VWS V14.01,2013-02-02 07:28:00,
2013-02-02 02:34:00,23.9,11.3,30.13,West,275,19.0,20.0,58,0.00,,---,0.00,VWS V14.01,2013-02-02 07:34:00,
2013-02-02 02:39:00,23.9,12.4,30.13,WNW,294,14.0,20.0,61,0.00,,---,0.00,VWS V14.01,2013-02-02 07:39:00,
2013-02-02 02:44:00,24.0,12.5,30.13,WNW,297,15.0,22.0,61,0.00,,---,0.00,VWS V14.01,2013-02-02 07:44:00,
2013-02-02 02:49:00,23.9,12.4,30.13,WNW,296,15.0,22.0,61,0.00,,---,0.00,VWS V14.01,2013-02-02 07:49:00,
2013-02-02 02:54:00,23.8,12.0,30.13,WNW,283,14.0,22.0,60,0.00,,---,0.00,VWS V14.01,2013-02-02 07:54:00,
2013-02-02 02:59:00,23.6,11.8,30.14,West,280,14.0,22.0,60,0.00,,---,0.00,VWS V14.01,2013-02-02 07:59:00,
2013-02-02 03:06:00,23.6,11.4,30.13,WNW,294,15.0,18.0,59,0.00,,---,0.00,VWS V14.01,2013-02-02 08:06:00,
2013-02-02 03:11:00,23.7,11.9,30.14,WNW,293,16.0,20.0,60,0.00,,---,0.00,VWS V14.01,2013-02-02 08:11:00,
2013-02-02 03:16:00,23.8,12.7,30.14,WNW,284,15.0,20.0,62,0.00,,---,0.00,VWS V14.01,2013-02-02 08:16:00,
2013-02-02 03:21:00,23.6,12.1,30.14,WNW,301,12.0,20.0,61,0.00,,---,0.00,VWS V14.01,2013-02-02 08:21:00,
2013-02-02 03:26:00,23.5,12.8,30.14,WNW,298,11.0,20.0,63,0.00,,---,0.00,VWS V14.01,2013-02-02 08:26:00,
2013-02-02 03:31:00,23.5,11.3,30.14,WNW,300,9.0,15.0,59,0.00,,---,0.00,VWS V14.01,2013-02-02 08:31:00,
2013-02-02 03:36:00,23.5,12.4,30.14,WNW,282,16.0,20.0,62,0.00,,---,0.00,VWS V14.01,2013-02-02 08:36:00,
2013-02-02 03:41:00,23.1,10.9,30.15,WNW,300,11.0,20.0,59,0.00,,---,0.00,VWS V14.01,2013-02-02 08:41:00,
2013-02-02 03:46:00,23.3,11.5,30.15,WNW,290,14.0,20.0,60,0.00,,---,0.00,VWS V14.01,2013-02-02 08:46:00,
2013-02-02 03:51:00,23.1,11.7,30.15,WNW,294,13.0,20.0,61,0.00,,---,0.00,VWS V14.01,2013-02-02 08:51:00,
2013-02-02 03:56:00,22.9,10.7,30.15,WNW,293,15.0,20.0,59,0.00,,---,0.00,VWS V14.01,2013-02-02 08:56:00,
2013-02-02 04:01:00,22.9,11.1,30.16,WNW,300,11.0,13.0,60,0.00,,---,0.00,VWS V14.01,2013-02-02 09:01:00,
2013-02-02 04:07:00,22.9,11.5,30.16,WNW,300,12.0,15.0,61,0.00,,---,0.00,VWS V14.01,2013-02-02 09:07:00,
2013-02-02 04:12:00,22.8,11.4,30.16,NW,313,10.0,15.0,61,0.00,,---,0.00,VWS V14.01,2013-02-02 09:12:00,
2013-02-02 04:17:00,22.6,10.1,30.16,WNW,298,12.0,17.0,58,0.00,,---,0.00,VWS V14.01,2013-02-02 09:17:00,
2013-02-02 04:22:00,22.9,11.5,30.17,NW,321,10.0,17.0,61,0.00,,---,0.00,VWS V14.01,2013-02-02 09:22:00,
2013-02-02 04:27:00,22.9,11.8,30.17,WNW,290,9.0,17.0,62,0.00,,---,0.00,VWS V14.01,2013-02-02 09:27:00,
2013-02-02 04:32:00,22.7,10.9,30.17,NW,308,10.0,14.0,60,0.00,,---,0.00,VWS V14.01,2013-02-02 09:32:00,
2013-02-02 04:37:00,22.8,11.8,30.17,WNW,298,8.0,14.0,62,0.00,,---,0.00,VWS V14.01,2013-02-02 09:37:00,
2013-02-02 04:42:00,22.4,9.9,30.17,WNW,286,12.0,14.0,58,0.00,,---,0.00,VWS V14.01,2013-02-02 09:42:00,
2013-02-02 04:47:00,22.4,10.6,30.17,WNW,291,11.0,14.0,60,0.00,,---,0.00,VWS V14.01,2013-02-02 09:47:00,
2013-02-02 04:53:00,22.6,11.2,30.18,NW,311,9.0,14.0,61,0.00,,---,0.00,VWS V14.01,2013-02-02 09:53:00,
2013-02-02 04:58:00,22.2,10.1,30.18,NW,318,11.0,14.0,59,0.00,,---,0.00,VWS V14.01,2013-02-02 09:58:00,
2013-02-02 05:03:00,22.1,10.4,30.18,NW,305,9.0,14.0,60,0.00,,---,0.00,VWS V14.01,2013-02-02 10:03:00,
2013-02-02 05:08:00,22.0,9.9,30.19,NW,319,10.0,14.0,59,0.00,,---,0.00,VWS V14.01,2013-02-02 10:08:00,
2013-02-02 05:13:00,22.1,10.0,30.19,NW,306,10.0,14.0,59,0.00,,---,0.00,VWS V14.01,2013-02-02 10:13:00,
2013-02-02 05:18:00,22.0,9.5,30.20,WNW,302,10.0,14.0,58,0.00,,---,0.00,VWS V14.01,2013-02-02 10:18:00,
2013-02-02 05:23:00,21.9,10.2,30.19,WNW,293,10.0,14.0,60,0.00,,---,0.00,VWS V14.01,2013-02-02 10:23:00,
2013-02-02 05:28:00,21.9,9.8,30.19,WNW,292,7.0,14.0,59,0.00,,---,0.00,VWS V14.01,2013-02-02 10:28:00,
2013-02-02 05:33:00,21.8,10.4,30.19,WNW,282,8.0,12.0,61,0.00,,---,0.00,VWS V14.01,2013-02-02 10:33:00,
2013-02-02 05:39:00,21.6,9.5,30.20,WNW,293,11.0,13.0,59,0.00,,---,0.00,VWS V14.01,2013-02-02 10:39:00,
2013-02-02 05:44:00,21.7,10.3,30.20,WNW,296,9.0,13.0,61,0.00,,---,0.00,VWS V14.01,2013-02-02 10:44:00,
2013-02-02 05:49:00,21.8,10.1,30.20,WNW,299,11.0,13.0,60,0.00,,---,0.00,VWS V14.01,2013-02-02 10:49:00,
2013-02-02 05:54:00,21.7,10.0,30.20,WNW,296,10.0,13.0,60,0.00,,---,0.00,VWS V14.01,2013-02-02 10:54:00,
2013-02-02 05:59:00,21.7,10.0,30.20,WNW,289,9.0,13.0,60,0.00,,---,0.00,VWS V14.01,2013-02-02 10:59:00,
2013-02-02 06:04:00,21.7,9.6,30.20,WNW,296,11.0,12.0,59,0.00,,---,0.00,VWS V14.01,2013-02-02 11:04:00,
2013-02-02 06:09:00,21.6,10.2,30.20,WNW,296,6.0,12.0,61,0.00,,---,0.00,VWS V14.01,2013-02-02 11:09:00,
2013-02-02 06:14:00,21.6,9.9,30.20,WNW,290,11.0,14.0,60,0.00,,---,0.00,VWS V14.01,2013-02-02 11:14:00,
2013-02-02 06:19:00,21.4,8.9,30.20,NW,309,10.0,15.0,58,0.00,,---,0.00,VWS V14.01,2013-02-02 11:19:00,
2013-02-02 06:25:00,21.3,9.2,30.20,NW,306,13.0,15.0,59,0.00,,---,0.00,VWS V14.01,2013-02-02 11:25:00,
2013-02-02 06:30:00,21.4,8.9,30.20,NW,309,13.0,15.0,58,0.00,,---,0.00,VWS V14.01,2013-02-02 11:30:00,
2013-02-02 06:35:00,21.1,8.6,30.21,WNW,303,12.0,14.0,58,0.00,,---,0.00,VWS V14.01,2013-02-02 11:35:00,
2013-02-02 06:40:00,21.1,9.0,30.21,WNW,293,11.0,14.0,59,0.00,,---,0.00,VWS V14.01,2013-02-02 11:40:00,
2013-02-02 06:45:00,21.0,8.6,30.21,NW,308,11.0,14.0,58,0.00,,---,0.00,VWS V14.01,2013-02-02 11:45:00,
2013-02-02 06:50:00,21.3,11.0,30.21,WNW,289,12.0,14.0,64,0.00,,---,0.00,VWS V14.01,2013-02-02 11:50:00,
2013-02-02 06:55:00,21.1,8.6,30.22,WNW,295,12.0,14.0,58,0.00,,---,0.00,VWS V14.01,2013-02-02 11:55:00,
2013-02-02 07:00:00,21.0,8.9,30.22,WNW,294,12.0,14.0,59,0.00,,---,0.00,VWS V14.01,2013-02-02 12:00:00,
2013-02-02 07:05:00,20.9,8.8,30.22,West,281,9.0,14.0,59,0.00,,---,0.00,VWS V14.01,2013-02-02 12:05:00,
2013-02-02 07:11:00,20.8,8.4,30.23,West,281,12.0,15.0,58,0.00,,---,0.00,VWS V14.01,2013-02-02 12:11:00,
2013-02-02 07:16:00,20.8,8.8,30.23,WNW,284,12.0,15.0,59,0.00,,---,0.00,VWS V14.01,2013-02-02 12:16:00,
2013-02-02 07:21:00,20.7,9.0,30.23,NW,309,8.0,15.0,60,0.00,,---,0.00,VWS V14.01,2013-02-02 12:21:00,
2013-02-02 07:26:00,20.9,9.9,30.24,West,279,12.0,15.0,62,0.00,,---,0.00,VWS V14.01,2013-02-02 12:26:00,
2013-02-02 07:31:00,20.8,8.4,30.23,WNW,290,16.0,17.0,58,0.00,,---,0.00,VWS V14.01,2013-02-02 12:31:00,
2013-02-02 07:36:00,20.8,9.1,30.24,WNW,296,13.0,17.0,60,0.00,,---,0.00,VWS V14.01,2013-02-02 12:36:00,
2013-02-02 07:41:00,20.7,7.9,30.24,WNW,293,9.0,17.0,57,0.00,,---,0.00,VWS V14.01,2013-02-02 12:41:00,
2013-02-02 07:46:00,20.7,7.9,30.24,WNW,298,10.0,17.0,57,0.00,,---,0.00,VWS V14.01,2013-02-02 12:46:00,
2013-02-02 07:51:00,20.5,7.3,30.24,WNW,283,8.0,17.0,56,0.00,,---,0.00,VWS V14.01,2013-02-02 12:51:00,
2013-02-02 07:56:00,20.4,7.6,30.24,WNW,290,6.0,17.0,57,0.00,,---,0.00,VWS V14.01,2013-02-02 12:56:00,
2013-02-02 08:01:00,20.9,10.3,30.24,West,269,9.0,9.0,63,0.00,,---,0.00,VWS V14.01,2013-02-02 13:01:00,
2013-02-02 08:07:00,20.7,8.6,30.24,WNW,293,9.0,14.0,59,0.00,,---,0.00,VWS V14.01,2013-02-02 13:07:00,
2013-02-02 08:12:00,20.6,7.0,30.24,WNW,289,13.0,15.0,55,0.00,,---,0.00,VWS V14.01,2013-02-02 13:12:00,
2013-02-02 08:17:00,20.9,8.5,30.25,NW,318,13.0,15.0,58,0.00,,---,0.00,VWS V14.01,2013-02-02 13:17:00,
2013-02-02 08:22:00,20.9,8.1,30.25,WNW,290,13.0,17.0,57,0.00,,---,0.00,VWS V14.01,2013-02-02 13:22:00,
2013-02-02 08:27:00,21.0,8.2,30.25,WNW,295,10.0,17.0,57,0.00,,---,0.00,VWS V14.01,2013-02-02 13:27:00,
2013-02-02 08:32:00,20.8,7.2,30.25,West,281,9.0,13.0,55,0.00,,---,0.00,VWS V14.01,2013-02-02 13:32:00,
2013-02-02 08:37:00,20.8,8.0,30.25,WNW,294,9.0,13.0,57,0.00,,---,0.00,VWS V14.01,2013-02-02 13:37:00,
2013-02-02 08:42:00,20.8,7.6,30.25,NW,305,9.0,14.0,56,0.00,,---,0.00,VWS V14.01,2013-02-02 13:42:00,
2013-02-02 08:47:00,20.9,7.3,30.25,WNW,286,12.0,15.0,55,0.00,,---,0.00,VWS V14.01,2013-02-02 13:47:00,
2013-02-02 08:52:00,21.0,8.6,30.25,West,275,9.0,15.0,58,0.00,,---,0.00,VWS V14.01,2013-02-02 13:52:00,
2013-02-02 08:58:00,21.0,7.8,30.25,NW,310,8.0,15.0,56,0.00,,---,0.00,VWS V14.01,2013-02-02 13:58:00,
2013-02-02 09:03:00,21.1,8.3,30.25,WNW,298,9.0,12.0,57,0.00,,---,0.00,VWS V14.01,2013-02-02 14:03:00,
2013-02-02 09:08:00,21.0,7.0,30.25,NW,317,6.0,14.0,54,0.00,,---,0.00,VWS V14.01,2013-02-02 14:08:00,
2013-02-02 09:13:00,21.1,7.5,30.26,WNW,288,9.0,14.0,55,0.00,,---,0.00,VWS V14.01,2013-02-02 14:13:00,
2013-02-02 09:18:00,20.9,6.1,30.26,WNW,286,4.0,14.0,52,0.00,,---,0.00,VWS V14.01,2013-02-02 14:18:00,
2013-02-02 09:23:00,21.2,7.6,30.26,West,278,6.0,14.0,55,0.00,,---,0.00,VWS V14.01,2013-02-02 14:23:00,
2013-02-02 09:28:00,21.4,6.9,30.26,WNW,292,8.0,14.0,53,0.00,,---,0.00,VWS V14.01,2013-02-02 14:28:00,
2013-02-02 09:33:00,21.5,6.6,30.26,WNW,286,9.0,12.0,52,0.00,,---,0.00,VWS V14.01,2013-02-02 14:33:00,
2013-02-02 09:38:00,21.6,6.7,30.26,West,270,9.0,14.0,52,0.00,,---,0.00,VWS V14.01,2013-02-02 14:38:00,
2013-02-02 09:43:00,21.7,6.8,30.25,NW,304,7.0,14.0,52,0.00,,---,0.00,VWS V14.01,2013-02-02 14:43:00,
2013-02-02 09:48:00,21.8,6.5,30.25,WNW,288,3.0,14.0,51,0.00,,---,0.00,VWS V14.01,2013-02-02 14:48:00,
2013-02-02 09:53:00,21.9,7.4,30.25,WSW,254,5.0,14.0,53,0.00,,---,0.00,VWS V14.01,2013-02-02 14:53:00,
2013-02-02 09:58:00,21.9,6.6,30.25,West,264,3.0,14.0,51,0.00,,---,0.00,VWS V14.01,2013-02-02 14:58:00,
2013-02-02 10:03:00,22.0,7.1,30.25,WNW,297,7.0,10.0,52,0.00,,---,0.00,VWS V14.01,2013-02-02 15:03:00,
2013-02-02 10:08:00,22.0,7.1,30.25,WNW,295,9.0,10.0,52,0.00,,---,0.00,VWS V14.01,2013-02-02 15:08:00,
2013-02-02 10:13:00,22.4,7.9,30.25,West,280,6.0,11.0,53,0.00,,---,0.00,VWS V14.01,2013-02-02 15:13:00,
2013-02-02 10:18:00,22.4,7.4,30.25,WNW,282,4.0,11.0,52,0.00,,---,0.00,VWS V14.01,2013-02-02 15:18:00,
2013-02-02 10:24:00,22.5,6.7,30.24,WNW,286,5.0,11.0,50,0.00,,---,0.00,VWS V14.01,2013-02-02 15:24:00,
2013-02-02 10:29:00,22.6,7.2,30.24,WNW,282,4.0,11.0,51,0.00,,---,0.00,VWS V14.01,2013-02-02 15:29:00,
2013-02-02 10:34:00,22.9,7.5,30.24,WNW,288,4.0,8.0,51,0.00,,---,0.00,VWS V14.01,2013-02-02 15:34:00,
2013-02-02 10:39:00,23.3,7.4,30.25,SW,229,4.0,10.0,50,0.00,,---,0.00,VWS V14.01,2013-02-02 15:39:00,
2013-02-02 10:44:00,23.5,8.1,30.25,SW,229,0.0,10.0,51,0.00,,---,0.00,VWS V14.01,2013-02-02 15:44:00,
2013-02-02 10:49:00,24.4,8.4,30.24,WSW,254,6.0,10.0,50,0.00,,---,0.00,VWS V14.01,2013-02-02 15:49:00,
2013-02-02 10:54:00,24.7,6.9,30.24,West,272,2.0,10.0,46,0.00,,---,0.00,VWS V14.01,2013-02-02 15:54:00,
2013-02-02 10:59:00,25.1,9.1,30.24,West,263,8.0,10.0,50,0.00,,---,0.00,VWS V14.01,2013-02-02 15:59:00,
2013-02-02 11:04:00,25.1,6.8,30.23,West,271,2.0,9.0,45,0.00,,---,0.00,VWS V14.01,2013-02-02 16:04:00,
2013-02-02 11:09:00,25.2,8.7,30.23,West,270,5.0,9.0,49,0.00,,---,0.00,VWS V14.01,2013-02-02 16:09:00,
2013-02-02 11:14:00,25.2,7.3,30.23,WSW,256,8.0,13.0,46,0.00,,---,0.00,VWS V14.01,2013-02-02 16:14:00,
2013-02-02 11:19:00,25.3,7.4,30.22,WNW,286,5.0,13.0,46,0.00,,---,0.00,VWS V14.01,2013-02-02 16:19:00,
2013-02-02 11:24:00,25.5,7.6,30.22,West,269,8.0,13.0,46,0.00,,---,0.00,VWS V14.01,2013-02-02 16:24:00,
2013-02-02 11:29:00,25.9,8.9,30.21,West,260,6.0,13.0,48,0.00,,---,0.00,VWS V14.01,2013-02-02 16:29:00,
2013-02-02 11:34:00,26.0,8.6,30.21,West,261,4.0,8.0,47,0.00,,---,0.00,VWS V14.01,2013-02-02 16:34:00,
2013-02-02 11:39:00,26.5,9.9,30.21,West,268,5.0,9.0,49,0.00,,---,0.00,VWS V14.01,2013-02-02 16:39:00,
2013-02-02 11:44:00,26.5,9.5,30.21,SW,225,6.0,12.0,48,0.00,,---,0.00,VWS V14.01,2013-02-02 16:44:00,
2013-02-02 11:49:00,27.3,9.7,30.20,SW,221,7.0,12.0,47,0.00,,---,0.00,VWS V14.01,2013-02-02 16:49:00,
2013-02-02 11:55:00,27.9,11.2,30.20,WSW,242,6.0,12.0,49,0.00,,---,0.00,VWS V14.01,2013-02-02 16:55:00,
2013-02-02 12:00:00,28.0,8.9,30.20,SW,218,0.0,12.0,44,0.00,,---,0.00,VWS V14.01,2013-02-02 17:00:00,
2013-02-02 12:05:00,28.3,10.2,30.19,SW,235,4.0,5.0,46,0.00,,---,0.00,VWS V14.01,2013-02-02 17:05:00,
2013-02-02 12:10:00,28.1,9.0,30.19,SW,228,5.0,8.0,44,0.00,,---,0.00,VWS V14.01,2013-02-02 17:10:00,
2013-02-02 12:15:00,28.1,10.0,30.18,West,267,6.0,8.0,46,0.00,,---,0.00,VWS V14.01,2013-02-02 17:15:00,
2013-02-02 12:20:00,28.3,11.6,30.18,WSW,245,2.0,8.0,49,0.00,,---,0.00,VWS V14.01,2013-02-02 17:20:00,
2013-02-02 12:25:00,29.5,10.3,30.18,SSW,206,6.0,8.0,44,0.00,,---,0.00,VWS V14.01,2013-02-02 17:25:00,
2013-02-02 12:30:00,29.6,11.4,30.18,SW,225,6.0,9.0,46,0.00,,---,0.00,VWS V14.01,2013-02-02 17:30:00,
2013-02-02 12:35:00,29.1,11.9,30.18,SSW,210,8.0,12.0,48,0.00,,---,0.00,VWS V14.01,2013-02-02 17:35:00,
2013-02-02 12:40:00,29.4,12.1,30.18,SSW,209,7.0,12.0,48,0.00,,---,0.00,VWS V14.01,2013-02-02 17:40:00,
2013-02-02 12:45:00,29.4,12.1,30.17,SSW,209,11.0,12.0,48,0.00,,---,0.00,VWS V14.01,2013-02-02 17:45:00,
2013-02-02 12:50:00,29.4,11.7,30.17,SSW,204,9.0,12.0,47,0.00,,---,0.00,VWS V14.01,2013-02-02 17:50:00,
2013-02-02 12:56:00,29.7,11.5,30.17,SSW,200,9.0,12.0,46,0.00,,---,0.00,VWS V14.01,2013-02-02 17:56:00,
2013-02-02 13:01:00,29.6,11.4,30.16,SSW,209,14.0,14.0,46,0.00,,---,0.00,VWS V14.01,2013-02-02 18:01:00,
2013-02-02 13:06:00,29.3,12.1,30.16,SW,214,8.0,16.0,48,0.00,,---,0.00,VWS V14.01,2013-02-02 18:06:00,
2013-02-02 13:11:00,29.3,11.1,30.16,SSW,212,6.0,16.0,46,0.00,,---,0.00,VWS V14.01,2013-02-02 18:11:00,
2013-02-02 13:16:00,29.8,13.4,30.16,SSW,207,8.0,16.0,50,0.00,,---,0.00,VWS V14.01,2013-02-02 18:16:00,
2013-02-02 13:21:00,30.3,12.5,30.15,SSW,207,13.0,16.0,47,0.00,,---,0.00,VWS V14.01,2013-02-02 18:21:00,
2013-02-02 13:26:00,30.3,11.5,30.15,SSW,202,9.0,16.0,45,0.00,,---,0.00,VWS V14.01,2013-02-02 18:26:00,
2013-02-02 13:31:00,30.6,12.3,30.15,SSW,204,12.0,14.0,46,0.00,,---,0.00,VWS V14.01,2013-02-02 18:31:00,
2013-02-02 13:36:00,30.8,12.5,30.14,SSW,209,11.0,15.0,46,0.00,,---,0.00,VWS V14.01,2013-02-02 18:36:00,
2013-02-02 13:41:00,31.2,12.8,30.14,SSW,204,8.0,15.0,46,0.00,,---,0.00,VWS V14.01,2013-02-02 18:41:00,
2013-02-02 13:47:00,31.5,11.1,30.14,SSW,203,6.0,15.0,42,0.00,,---,0.00,VWS V14.01,2013-02-02 18:47:00,
2013-02-02 13:52:00,32.0,13.1,30.14,SSW,200,7.0,15.0,45,0.00,,---,0.00,VWS V14.01,2013-02-02 18:52:00,
2013-02-02 13:57:00,32.2,13.3,30.14,SW,215,10.0,15.0,45,0.00,,---,0.00,VWS V14.01,2013-02-02 18:57:00,
2013-02-02 14:02:00,31.5,13.6,30.13,SW,221,13.0,14.0,47,0.00,,---,0.00,VWS V14.01,2013-02-02 19:02:00,
2013-02-02 14:07:00,31.0,14.6,30.13,SSW,213,14.0,18.0,50,0.00,,---,0.00,VWS V14.01,2013-02-02 19:07:00,
2013-02-02 14:12:00,32.0,13.6,30.13,SSW,205,8.0,18.0,46,0.00,,---,0.00,VWS V14.01,2013-02-02 19:12:00,
2013-02-02 14:17:00,31.9,13.0,30.13,SSW,211,4.0,18.0,45,0.00,,---,0.00,VWS V14.01,2013-02-02 19:17:00,
2013-02-02 14:22:00,31.6,15.6,30.13,SSW,207,13.0,18.0,51,0.00,,---,0.00,VWS V14.01,2013-02-02 19:22:00,
2013-02-02 14:28:00,31.3,13.4,30.13,SSW,213,6.0,18.0,47,0.00,,---,0.00,VWS V14.01,2013-02-02 19:28:00,
2013-02-02 14:33:00,31.2,14.3,30.12,SSW,207,14.0,16.0,49,0.00,,---,0.00,VWS V14.01,2013-02-02 19:33:00,
2013-02-02 14:38:00,31.0,13.6,30.12,SSW,209,7.0,16.0,48,0.00,,---,0.00,VWS V14.01,2013-02-02 19:38:00,
2013-02-02 14:43:00,30.9,14.9,30.12,SSW,207,11.0,16.0,51,0.00,,---,0.00,VWS V14.01,2013-02-02 19:43:00,
2013-02-02 14:48:00,31.0,14.6,30.12,SSW,213,9.0,16.0,50,0.00,,---,0.00,VWS V14.01,2013-02-02 19:48:00,
2013-02-02 14:53:00,31.0,15.0,30.12,SSW,209,8.0,16.0,51,0.00,,---,0.00,VWS V14.01,2013-02-02 19:53:00,
2013-02-02 14:58:00,30.8,14.4,30.11,SSW,209,8.0,16.0,50,0.00,,---,0.00,VWS V14.01,2013-02-02 19:58:00,
2013-02-02 15:03:00,30.7,16.0,30.11,SSW,209,11.0,12.0,54,0.00,,---,0.00,VWS V14.01,2013-02-02 20:03:00,
2013-02-02 15:08:00,30.4,12.6,30.11,SSW,205,7.0,15.0,47,0.00,,---,0.00,VWS V14.01,2013-02-02 20:08:00,
2013-02-02 15:13:00,30.5,16.3,30.11,SW,216,17.0,19.0,55,0.00,,---,0.00,VWS V14.01,2013-02-02 20:13:00,
2013-02-02 15:18:00,30.6,14.6,30.11,SSW,211,7.0,19.0,51,0.00,,---,0.00,VWS V14.01,2013-02-02 20:18:00,
2013-02-02 15:24:00,30.4,14.9,30.10,SSW,212,12.0,19.0,52,0.00,,---,0.00,VWS V14.01,2013-02-02 20:24:00,
2013-02-02 15:29:00,30.4,16.2,30.10,SSW,213,12.0,19.0,55,0.00,,---,0.00,VWS V14.01,2013-02-02 20:29:00,
2013-02-02 15:34:00,30.4,14.9,30.10,SSW,205,11.0,12.0,52,0.00,,---,0.00,VWS V14.01,2013-02-02 20:34:00,
2013-02-02 15:39:00,30.3,14.8,30.10,South,189,6.0,12.0,52,0.00,,---,0.00,VWS V14.01,2013-02-02 20:39:00,
2013-02-02 15:44:00,30.3,14.8,30.10,SSW,209,11.0,19.0,52,0.00,,---,0.00,VWS V14.01,2013-02-02 20:44:00,
2013-02-02 15:49:00,30.3,14.4,30.10,SSW,207,7.0,19.0,51,0.00,,---,0.00,VWS V14.01,2013-02-02 20:49:00,
2013-02-02 15:54:00,30.2,14.7,30.10,SSW,205,9.0,19.0,52,0.00,,---,0.00,VWS V14.01,2013-02-02 20:54:00,
2013-02-02 15:59:00,30.1,13.3,30.09,SSW,202,10.0,19.0,49,0.00,,---,0.00,VWS V14.01,2013-02-02 20:59:00,
2013-02-02 16:04:00,30.4,15.8,30.09,SSW,206,10.0,17.0,54,0.00,,---,0.00,VWS V14.01,2013-02-02 21:04:00,
2013-02-02 16:10:00,30.3,14.4,30.09,SSW,207,8.0,17.0,51,0.00,,---,0.00,VWS V14.01,2013-02-02 21:10:00,
2013-02-02 16:15:00,30.3,14.8,30.09,SSW,213,9.0,18.0,52,0.00,,---,0.00,VWS V14.01,2013-02-02 21:15:00,
2013-02-02 16:20:00,30.3,13.9,30.09,SSW,206,7.0,18.0,50,0.00,,---,0.00,VWS V14.01,2013-02-02 21:20:00,
2013-02-02 16:25:00,30.3,15.2,30.09,SSW,209,12.0,18.0,53,0.00,,---,0.00,VWS V14.01,2013-02-02 21:25:00,
2013-02-02 16:30:00,30.3,15.7,30.08,SSW,199,7.0,18.0,54,0.00,,---,0.00,VWS V14.01,2013-02-02 21:30:00,
2013-02-02 16:35:00,30.4,16.2,30.08,SSW,209,8.0,12.0,55,0.00,,---,0.00,VWS V14.01,2013-02-02 21:35:00,
2013-02-02 16:40:00,30.6,15.1,30.08,SSW,207,12.0,15.0,52,0.00,,---,0.00,VWS V14.01,2013-02-02 21:40:00,
2013-02-02 16:45:00,30.6,15.1,30.08,SSW,210,9.0,15.0,52,0.00,,---,0.00,VWS V14.01,2013-02-02 21:45:00,
2013-02-02 16:50:00,30.8,16.1,30.08,SW,217,18.0,19.0,54,0.00,,---,0.00,VWS V14.01,2013-02-02 21:50:00,
2013-02-02 16:56:00,30.9,16.6,30.08,SW,218,20.0,20.0,55,0.00,,---,0.00,VWS V14.01,2013-02-02 21:56:00,
2013-02-02 17:01:00,30.8,16.1,30.08,SW,220,11.0,11.0,54,0.00,,---,0.00,VWS V14.01,2013-02-02 22:01:00,
2013-02-02 17:06:00,30.8,17.4,30.08,SW,219,16.0,19.0,57,0.00,,---,0.00,VWS V14.01,2013-02-02 22:06:00,
2013-02-02 17:11:00,30.8,16.1,30.08,SW,215,18.0,20.0,54,0.00,,---,0.00,VWS V14.01,2013-02-02 22:11:00,
2013-02-02 17:16:00,30.8,17.0,30.08,SW,216,16.0,20.0,56,0.00,,---,0.00,VWS V14.01,2013-02-02 22:16:00,
2013-02-02 17:21:00,30.8,17.0,30.08,SW,216,13.0,21.0,56,0.00,,---,0.00,VWS V14.01,2013-02-02 22:21:00,
2013-02-02 17:26:00,31.0,16.7,30.08,SW,218,17.0,21.0,55,0.00,,---,0.00,VWS V14.01,2013-02-02 22:26:00,
2013-02-02 17:31:00,31.1,17.7,30.08,SW,219,18.0,20.0,57,0.00,,---,0.00,VWS V14.01,2013-02-02 22:31:00,
2013-02-02 17:36:00,30.8,14.8,30.08,SW,222,16.0,21.0,51,0.00,,---,0.00,VWS V14.01,2013-02-02 22:36:00,
2013-02-02 17:42:00,30.8,16.1,30.08,SW,217,16.0,21.0,54,0.00,,---,0.00,VWS V14.01,2013-02-02 22:42:00,
2013-02-02 17:47:00,30.8,17.0,30.08,SW,222,17.0,21.0,56,0.00,,---,0.00,VWS V14.01,2013-02-02 22:47:00,
2013-02-02 17:52:00,30.7,16.0,30.08,SW,216,13.0,21.0,54,0.00,,---,0.00,VWS V14.01,2013-02-02 22:52:00,
2013-02-02 17:57:00,30.8,16.1,30.08,SW,217,18.0,21.0,54,0.00,,---,0.00,VWS V14.01,2013-02-02 22:57:00,
2013-02-02 18:02:00,30.7,16.5,30.08,SW,219,18.0,18.0,55,0.00,,---,0.00,VWS V14.01,2013-02-02 23:02:00,
2013-02-02 18:07:00,30.7,16.0,30.08,SW,219,14.0,19.0,54,0.00,,---,0.00,VWS V14.01,2013-02-02 23:07:00,
2013-02-02 18:12:00,30.5,16.7,30.08,SW,228,12.0,19.0,56,0.00,,---,0.00,VWS V14.01,2013-02-02 23:12:00,
2013-02-02 18:17:00,30.6,15.9,30.08,SW,227,14.0,19.0,54,0.00,,---,0.00,VWS V14.01,2013-02-02 23:17:00,
2013-02-02 18:22:00,30.6,16.8,30.08,SSW,211,14.0,20.0,56,0.00,,---,0.00,VWS V14.01,2013-02-02 23:22:00,
2013-02-02 18:28:00,30.4,15.3,30.08,SSW,213,15.0,20.0,53,0.00,,---,0.00,VWS V14.01,2013-02-02 23:28:00,
2013-02-02 18:33:00,30.4,15.8,30.08,SSW,212,18.0,18.0,54,0.00,,---,0.00,VWS V14.01,2013-02-02 23:33:00,
2013-02-02 18:38:00,30.4,16.6,30.08,SW,221,11.0,19.0,56,0.00,,---,0.00,VWS V14.01,2013-02-02 23:38:00,
2013-02-02 18:43:00,30.5,16.7,30.08,SW,218,16.0,21.0,56,0.00,,---,0.00,VWS V14.01,2013-02-02 23:43:00,
2013-02-02 18:48:00,30.4,16.6,30.08,SW,214,16.0,21.0,56,0.00,,---,0.00,VWS V14.01,2013-02-02 23:48:00,
2013-02-02 18:53:00,30.2,16.4,30.08,SW,221,15.0,21.0,56,0.00,,---,0.00,VWS V14.01,2013-02-02 23:53:00,
2013-02-02 18:58:00,30.2,16.8,30.08,SW,218,17.0,21.0,57,0.00,,---,0.00,VWS V14.01,2013-02-02 23:58:00,
2013-02-02 19:03:00,30.2,16.0,30.08,SW,222,19.0,19.0,55,0.00,,---,0.00,VWS V14.01,2013-02-03 00:03:00,
2013-02-02 19:08:00,30.0,16.2,30.08,SSW,213,9.0,20.0,56,0.00,,---,0.00,VWS V14.01,2013-02-03 00:08:00,
2013-02-02 19:14:00,30.3,17.7,30.08,SW,222,14.0,20.0,59,0.00,,---,0.00,VWS V14.01,2013-02-03 00:14:00,
2013-02-02 19:19:00,30.2,19.1,30.08,SSW,213,7.0,20.0,63,0.00,,---,0.00,VWS V14.01,2013-02-03 00:19:00,
2013-02-02 19:24:00,30.1,17.5,30.08,SW,219,15.0,20.0,59,0.00,,---,0.00,VWS V14.01,2013-02-03 00:24:00,
2013-02-02 19:29:00,30.0,17.4,30.08,SW,215,14.0,20.0,59,0.00,,---,0.00,VWS V14.01,2013-02-03 00:29:00,
2013-02-02 19:34:00,30.0,17.0,30.08,SW,221,13.0,20.0,58,0.00,,---,0.00,VWS V14.01,2013-02-03 00:34:00,
2013-02-02 19:39:00,29.8,16.4,30.08,SW,219,17.0,21.0,57,0.00,,---,0.00,VWS V14.01,2013-02-03 00:39:00,
2013-02-02 19:44:00,29.9,16.9,30.08,SW,230,14.0,21.0,58,0.00,,---,0.00,VWS V14.01,2013-02-03 00:44:00,
2013-02-02 19:49:00,29.8,16.8,30.07,SW,220,15.0,21.0,58,0.00,,---,0.00,VWS V14.01,2013-02-03 00:49:00,
2013-02-02 19:55:00,29.7,15.5,30.07,SW,224,19.0,21.0,55,0.00,,---,0.00,VWS V14.01,2013-02-03 00:55:00,
2013-02-02 20:00:00,29.8,17.6,30.07,SW,231,13.0,21.0,60,0.00,,---,0.00,VWS V14.01,2013-02-03 01:00:00,
2013-02-02 20:05:00,29.9,17.7,30.07,SSW,213,15.0,19.0,60,0.00,,---,0.00,VWS V14.01,2013-02-03 01:05:00,
2013-02-02 20:10:00,29.8,17.6,30.07,SW,225,16.0,22.0,60,0.00,,---,0.00,VWS V14.01,2013-02-03 01:10:00,
2013-02-02 20:15:00,29.7,17.5,30.07,SW,227,14.0,22.0,60,0.00,,---,0.00,VWS V14.01,2013-02-03 01:15:00,
2013-02-02 20:20:00,29.8,18.0,30.07,SW,223,14.0,22.0,61,0.00,,---,0.00,VWS V14.01,2013-02-03 01:20:00,
2013-02-02 20:25:00,29.6,17.0,30.07,SW,218,14.0,22.0,59,0.00,,---,0.00,VWS V14.01,2013-02-03 01:25:00,
2013-02-02 20:30:00,29.6,17.0,30.07,SW,227,14.0,22.0,59,0.00,,---,0.00,VWS V14.01,2013-02-03 01:30:00,
2013-02-02 20:35:00,29.5,16.6,30.07,SW,224,9.0,18.0,58,0.00,,---,0.00,VWS V14.01,2013-02-03 01:35:00,
2013-02-02 20:41:00,29.6,17.4,30.07,SW,236,14.0,18.0,60,0.00,,---,0.00,VWS V14.01,2013-02-03 01:41:00,
2013-02-02 20:46:00,29.6,17.4,30.07,WSW,239,9.0,18.0,60,0.00,,---,0.00,VWS V14.01,2013-02-03 01:46:00,
2013-02-02 20:51:00,29.6,17.8,30.07,West,280,19.0,19.0,61,0.00,,---,0.00,VWS V14.01,2013-02-03 01:51:00,
2013-02-02 20:56:00,29.6,18.2,30.07,WSW,238,10.0,21.0,62,0.00,,---,0.00,VWS V14.01,2013-02-03 01:56:00,
2013-02-02 21:01:00,29.5,17.0,30.07,SW,223,12.0,14.0,59,0.00,,---,0.00,VWS V14.01,2013-02-03 02:01:00,
2013-02-02 21:06:00,29.6,17.0,30.07,WSW,246,12.0,20.0,59,0.00,,---,0.00,VWS V14.01,2013-02-03 02:06:00,
2013-02-02 21:11:00,29.5,17.0,30.07,SW,228,14.0,20.0,59,0.00,,---,0.00,VWS V14.01,2013-02-03 02:11:00,
2013-02-02 21:16:00,29.6,17.8,30.07,SW,229,14.0,20.0,61,0.00,,---,0.00,VWS V14.01,2013-02-03 02:16:00,
2013-02-02 21:21:00,29.7,18.7,30.07,SW,235,8.0,21.0,63,0.00,,---,0.00,VWS V14.01,2013-02-03 02:21:00,
2013-02-02 21:27:00,29.6,17.4,30.07,SW,221,12.0,21.0,60,0.00,,---,0.00,VWS V14.01,2013-02-03 02:27:00,
2013-02-02 21:32:00,29.5,17.7,30.07,SW,227,15.0,15.0,61,0.00,,---,0.00,VWS V14.01,2013-02-03 02:32:00,
2013-02-02 21:37:00,29.6,18.9,30.07,WSW,241,12.0,20.0,64,0.00,,---,0.00,VWS V14.01,2013-02-03 02:37:00,
2013-02-02 21:42:00,29.5,17.0,30.07,WSW,246,10.0,20.0,59,0.00,,---,0.00,VWS V14.01,2013-02-03 02:42:00,
2013-02-02 21:47:00,29.6,17.8,30.07,WSW,240,10.0,20.0,61,0.00,,---,0.00,VWS V14.01,2013-02-03 02:47:00,
2013-02-02 21:52:00,29.5,17.0,30.07,West,259,13.0,20.0,59,0.00,,---,0.00,VWS V14.01,2013-02-03 02:52:00,
2013-02-02 21:57:00,29.5,17.3,30.07,WSW,253,12.0,20.0,60,0.00,,---,0.00,VWS V14.01,2013-02-03 02:57:00,
2013-02-02 22:02:00,29.5,17.3,30.07,WSW,252,16.0,18.0,60,0.00,,---,0.00,VWS V14.01,2013-02-03 03:02:00,
2013-02-02 22:08:00,29.6,17.4,30.07,WSW,242,14.0,19.0,60,0.00,,---,0.00,VWS V14.01,2013-02-03 03:08:00,
2013-02-02 22:13:00,29.4,17.2,30.07,West,260,16.0,19.0,60,0.00,,---,0.00,VWS V14.01,2013-02-03 03:13:00,
2013-02-02 22:18:00,29.4,16.5,30.07,West,260,15.0,20.0,58,0.00,,---,0.00,VWS V14.01,2013-02-03 03:18:00,
2013-02-02 22:23:00,29.5,18.5,30.07,SW,227,12.0,22.0,63,0.00,,---,0.00,VWS V14.01,2013-02-03 03:23:00,
2013-02-02 22:28:00,29.6,17.8,30.06,WSW,243,12.0,22.0,61,0.00,,---,0.00,VWS V14.01,2013-02-03 03:28:00,
2013-02-02 22:33:00,29.4,16.9,30.06,WSW,238,12.0,17.0,59,0.00,,---,0.00,VWS V14.01,2013-02-03 03:33:00,
2013-02-02 22:38:00,29.4,16.9,30.06,WSW,240,15.0,17.0,59,0.00,,---,0.00,VWS V14.01,2013-02-03 03:38:00,
2013-02-02 22:43:00,29.4,16.1,30.06,WSW,246,10.0,19.0,57,0.00,,---,0.00,VWS V14.01,2013-02-03 03:43:00,
2013-02-02 22:48:00,29.4,16.9,30.06,WSW,248,11.0,20.0,59,0.00,,---,0.00,VWS V14.01,2013-02-03 03:48:00,
2013-02-02 22:53:00,29.4,16.9,30.06,West,259,9.0,20.0,59,0.00,,---,0.00,VWS V14.01,2013-02-03 03:53:00,
2013-02-02 22:58:00,29.4,16.5,30.06,SW,234,15.0,20.0,58,0.00,,---,0.00,VWS V14.01,2013-02-03 03:58:00,
2013-02-02 23:04:00,29.4,17.6,30.06,WSW,251,14.0,17.0,61,0.00,,---,0.00,VWS V14.01,2013-02-03 04:04:00,
2013-02-02 23:09:00,29.3,16.4,30.06,West,264,12.0,19.0,58,0.00,,---,0.00,VWS V14.01,2013-02-03 04:09:00,
2013-02-02 23:14:00,29.2,15.9,30.06,WSW,252,10.0,21.0,57,0.00,,---,0.00,VWS V14.01,2013-02-03 04:14:00,
2013-02-02 23:19:00,29.0,15.7,30.06,WSW,245,15.0,22.0,57,0.00,,---,0.00,VWS V14.01,2013-02-03 04:19:00,
2013-02-02 23:24:00,29.0,16.9,30.06,West,277,19.0,26.0,60,0.00,,---,0.00,VWS V14.01,2013-02-03 04:24:00,
2013-02-02 23:29:00,29.0,16.5,30.06,WSW,239,16.0,26.0,59,0.00,,---,0.00,VWS V14.01,2013-02-03 04:29:00,
2013-02-02 23:34:00,28.9,17.5,30.06,West,273,23.0,25.0,62,0.00,,---,0.00,VWS V14.01,2013-02-03 04:34:00,
2013-02-02 23:39:00,28.9,17.9,30.06,West,266,15.0,25.0,63,0.00,,---,0.00,VWS V14.01,2013-02-03 04:39:00,
2013-02-02 23:44:00,28.9,17.5,30.06,WNW,288,11.0,25.0,62,0.00,,---,0.00,VWS V14.01,2013-02-03 04:44:00,
2013-02-02 23:50:00,28.9,18.3,30.06,West,280,15.0,25.0,64,0.00,,---,0.00,VWS V14.01,2013-02-03 04:50:00,
2013-02-02 23:55:00,28.8,17.8,30.06,West,271,18.0,25.0,63,0.00,,---,0.00,VWS V14.01,2013-02-03 04:55:00,